sensor_id;sensor_type;location;lat;lon;timestamp;P1;durP1;ratioP1;P2;durP2;ratioP2
12482;SDS011;6306;47.134;15.344;2023-03-26T00:01:07;2.27;;;2.00;;
12482;SDS011;6306;47.134;15.344;2023-03-26T00:03:34;1.97;;;1.80;;
12482;SDS011;6306;47.134;15.344;2023-03-26T00:06:02;2.60;;;2.40;;
12482;SDS011;6306;47.134;15.344;2023-03-26T00:08:31;3.10;;;2.20;;
12482;SDS011;6306;47.134;15.344;2023-03-26T00:10:57;2.00;;;1.80;;
12482;SDS011;6306;47.134;15.344;2023-03-26T00:13:23;2.57;;;2.17;;
12482;SDS011;6306;47.134;15.344;2023-03-26T00:15:49;3.23;;;2.20;;
12482;SDS011;6306;47.134;15.344;2023-03-26T00:18:16;4.10;;;2.40;;
12482;SDS011;6306;47.134;15.344;2023-03-26T00:20:44;2.27;;;2.00;;
12482;SDS011;6306;47.134;15.344;2023-03-26T00:23:10;2.33;;;1.70;;
12482;SDS011;6306;47.134;15.344;2023-03-26T00:25:37;2.10;;;1.43;;
12482;SDS011;6306;47.134;15.344;2023-03-26T00:28:05;3.90;;;1.90;;
12482;SDS011;6306;47.134;15.344;2023-03-26T00:30:31;1.83;;;1.70;;
12482;SDS011;6306;47.134;15.344;2023-03-26T00:32:59;1.97;;;1.60;;
12482;SDS011;6306;47.134;15.344;2023-03-26T00:35:25;2.40;;;2.20;;
12482;SDS011;6306;47.134;15.344;2023-03-26T00:37:53;3.53;;;2.27;;
12482;SDS011;6306;47.134;15.344;2023-03-26T00:40:19;2.60;;;2.40;;
12482;SDS011;6306;47.134;15.344;2023-03-26T00:42:45;1.63;;;1.53;;
12482;SDS011;6306;47.134;15.344;2023-03-26T00:45:11;2.10;;;2.00;;
12482;SDS011;6306;47.134;15.344;2023-03-26T00:47:37;1.60;;;1.50;;
12482;SDS011;6306;47.134;15.344;2023-03-26T00:50:04;1.93;;;1.73;;
12482;SDS011;6306;47.134;15.344;2023-03-26T00:52:31;2.83;;;1.80;;
12482;SDS011;6306;47.134;15.344;2023-03-26T00:55:00;2.00;;;1.83;;
12482;SDS011;6306;47.134;15.344;2023-03-26T00:57:26;4.23;;;2.00;;
12482;SDS011;6306;47.134;15.344;2023-03-26T00:59:54;5.83;;;2.10;;
12482;SDS011;6306;47.134;15.344;2023-03-26T01:02:20;2.20;;;1.70;;
12482;SDS011;6306;47.134;15.344;2023-03-26T01:04:56;2.30;;;1.33;;
12482;SDS011;6306;47.134;15.344;2023-03-26T01:07:26;2.03;;;1.83;;
12482;SDS011;6306;47.134;15.344;2023-03-26T01:09:56;2.20;;;1.70;;
12482;SDS011;6306;47.134;15.344;2023-03-26T01:12:24;1.93;;;1.60;;
12482;SDS011;6306;47.134;15.344;2023-03-26T01:14:52;1.97;;;1.60;;
12482;SDS011;6306;47.134;15.344;2023-03-26T01:17:19;1.47;;;1.37;;
12482;SDS011;6306;47.134;15.344;2023-03-26T01:22:19;2.27;;;2.07;;
12482;SDS011;6306;47.134;15.344;2023-03-26T01:24:45;2.17;;;1.93;;
12482;SDS011;6306;47.134;15.344;2023-03-26T01:29:58;3.40;;;2.10;;
12482;SDS011;6306;47.134;15.344;2023-03-26T01:32:29;2.63;;;1.70;;
12482;SDS011;6306;47.134;15.344;2023-03-26T01:40:22;3.93;;;2.10;;
12482;SDS011;6306;47.134;15.344;2023-03-26T01:42:51;2.17;;;1.40;;
12482;SDS011;6306;47.134;15.344;2023-03-26T01:45:27;4.03;;;1.97;;
12482;SDS011;6306;47.134;15.344;2023-03-26T01:47:55;1.33;;;1.23;;
12482;SDS011;6306;47.134;15.344;2023-03-26T01:50:22;1.77;;;1.57;;
12482;SDS011;6306;47.134;15.344;2023-03-26T01:52:48;3.33;;;1.67;;
12482;SDS011;6306;47.134;15.344;2023-03-26T01:55:14;1.33;;;1.23;;
12482;SDS011;6306;47.134;15.344;2023-03-26T01:57:51;2.87;;;1.57;;
12482;SDS011;6306;47.134;15.344;2023-03-26T02:10:07;2.40;;;1.30;;
12482;SDS011;6306;47.134;15.344;2023-03-26T02:12:34;7.40;;;2.37;;
12482;SDS011;6306;47.134;15.344;2023-03-26T02:15:01;2.03;;;1.40;;
12482;SDS011;6306;47.134;15.344;2023-03-26T02:17:27;1.40;;;1.30;;
12482;SDS011;6306;47.134;15.344;2023-03-26T02:19:56;1.90;;;1.63;;
12482;SDS011;6306;47.134;15.344;2023-03-26T02:22:22;2.50;;;1.60;;
12482;SDS011;6306;47.134;15.344;2023-03-26T02:24:54;2.43;;;1.23;;
12482;SDS011;6306;47.134;15.344;2023-03-26T02:27:20;1.73;;;1.30;;
12482;SDS011;6306;47.134;15.344;2023-03-26T02:29:46;9.73;;;1.70;;
12482;SDS011;6306;47.134;15.344;2023-03-26T02:32:14;1.53;;;1.30;;
12482;SDS011;6306;47.134;15.344;2023-03-26T02:34:40;3.00;;;1.97;;
12482;SDS011;6306;47.134;15.344;2023-03-26T02:37:07;1.20;;;1.10;;
12482;SDS011;6306;47.134;15.344;2023-03-26T02:39:34;1.50;;;1.40;;
12482;SDS011;6306;47.134;15.344;2023-03-26T02:42:00;2.00;;;1.67;;
12482;SDS011;6306;47.134;15.344;2023-03-26T02:44:26;1.73;;;1.40;;
12482;SDS011;6306;47.134;15.344;2023-03-26T02:46:52;3.60;;;2.13;;
12482;SDS011;6306;47.134;15.344;2023-03-26T02:49:18;1.60;;;1.47;;
12482;SDS011;6306;47.134;15.344;2023-03-26T02:51:45;2.30;;;1.40;;
12482;SDS011;6306;47.134;15.344;2023-03-26T02:54:11;2.20;;;1.27;;
12482;SDS011;6306;47.134;15.344;2023-03-26T02:56:37;2.03;;;1.47;;
12482;SDS011;6306;47.134;15.344;2023-03-26T02:59:03;1.87;;;1.30;;
12482;SDS011;6306;47.134;15.344;2023-03-26T03:01:29;1.27;;;1.07;;
12482;SDS011;6306;47.134;15.344;2023-03-26T03:03:58;2.43;;;1.40;;
12482;SDS011;6306;47.134;15.344;2023-03-26T03:06:25;1.90;;;1.63;;
12482;SDS011;6306;47.134;15.344;2023-03-26T03:08:55;1.37;;;1.27;;
12482;SDS011;6306;47.134;15.344;2023-03-26T03:11:20;1.97;;;1.63;;
12482;SDS011;6306;47.134;15.344;2023-03-26T03:13:49;2.23;;;1.63;;
12482;SDS011;6306;47.134;15.344;2023-03-26T03:16:15;1.57;;;1.40;;
12482;SDS011;6306;47.134;15.344;2023-03-26T03:18:41;1.27;;;1.10;;
12482;SDS011;6306;47.134;15.344;2023-03-26T03:21:07;1.40;;;1.30;;
12482;SDS011;6306;47.134;15.344;2023-03-26T03:23:33;1.20;;;1.10;;
12482;SDS011;6306;47.134;15.344;2023-03-26T03:25:59;1.30;;;1.20;;
12482;SDS011;6306;47.134;15.344;2023-03-26T03:28:26;2.33;;;1.90;;
12482;SDS011;6306;47.134;15.344;2023-03-26T03:30:52;2.20;;;2.00;;
12482;SDS011;6306;47.134;15.344;2023-03-26T03:33:21;1.50;;;1.40;;
12482;SDS011;6306;47.134;15.344;2023-03-26T03:35:47;1.47;;;1.37;;
12482;SDS011;6306;47.134;15.344;2023-03-26T03:38:14;2.40;;;1.60;;
12482;SDS011;6306;47.134;15.344;2023-03-26T03:40:40;2.37;;;1.93;;
12482;SDS011;6306;47.134;15.344;2023-03-26T03:43:06;2.13;;;1.93;;
12482;SDS011;6306;47.134;15.344;2023-03-26T03:45:33;5.00;;;2.00;;
12482;SDS011;6306;47.134;15.344;2023-03-26T03:48:00;1.93;;;1.77;;
12482;SDS011;6306;47.134;15.344;2023-03-26T03:50:26;1.80;;;1.60;;
12482;SDS011;6306;47.134;15.344;2023-03-26T03:52:52;2.70;;;1.33;;
12482;SDS011;6306;47.134;15.344;2023-03-26T03:55:19;1.63;;;1.23;;
12482;SDS011;6306;47.134;15.344;2023-03-26T03:57:51;2.07;;;1.80;;
12482;SDS011;6306;47.134;15.344;2023-03-26T04:00:17;1.43;;;1.23;;
12482;SDS011;6306;47.134;15.344;2023-03-26T04:02:43;2.73;;;2.53;;
12482;SDS011;6306;47.134;15.344;2023-03-26T04:05:10;1.63;;;1.53;;
12482;SDS011;6306;47.134;15.344;2023-03-26T04:07:36;2.60;;;1.90;;
12482;SDS011;6306;47.134;15.344;2023-03-26T04:10:03;3.00;;;2.20;;
12482;SDS011;6306;47.134;15.344;2023-03-26T04:12:29;2.97;;;1.73;;
12482;SDS011;6306;47.134;15.344;2023-03-26T04:14:56;3.03;;;1.80;;
12482;SDS011;6306;47.134;15.344;2023-03-26T04:17:22;2.80;;;1.80;;
12482;SDS011;6306;47.134;15.344;2023-03-26T04:19:49;2.67;;;2.00;;
12482;SDS011;6306;47.134;15.344;2023-03-26T04:22:17;2.83;;;1.43;;
12482;SDS011;6306;47.134;15.344;2023-03-26T04:24:43;1.40;;;1.30;;
12482;SDS011;6306;47.134;15.344;2023-03-26T04:27:14;3.20;;;2.00;;
12482;SDS011;6306;47.134;15.344;2023-03-26T04:29:41;3.37;;;1.93;;
12482;SDS011;6306;47.134;15.344;2023-03-26T04:32:27;1.63;;;1.40;;
12482;SDS011;6306;47.134;15.344;2023-03-26T04:34:54;1.40;;;1.23;;
12482;SDS011;6306;47.134;15.344;2023-03-26T04:39:51;1.33;;;1.00;;
12482;SDS011;6306;47.134;15.344;2023-03-26T04:42:18;1.73;;;1.47;;
12482;SDS011;6306;47.134;15.344;2023-03-26T04:44:45;1.70;;;1.20;;
12482;SDS011;6306;47.134;15.344;2023-03-26T04:47:14;2.13;;;1.37;;
12482;SDS011;6306;47.134;15.344;2023-03-26T04:49:40;2.57;;;1.63;;
12482;SDS011;6306;47.134;15.344;2023-03-26T04:52:08;4.87;;;1.90;;
12482;SDS011;6306;47.134;15.344;2023-03-26T04:54:34;5.70;;;2.70;;
12482;SDS011;6306;47.134;15.344;2023-03-26T04:57:02;1.70;;;1.37;;
12482;SDS011;6306;47.134;15.344;2023-03-26T04:59:29;10.50;;;1.50;;
12482;SDS011;6306;47.134;15.344;2023-03-26T05:01:59;2.00;;;1.20;;
12482;SDS011;6306;47.134;15.344;2023-03-26T05:04:25;1.67;;;1.30;;
12482;SDS011;6306;47.134;15.344;2023-03-26T05:06:53;3.07;;;1.47;;
12482;SDS011;6306;47.134;15.344;2023-03-26T05:09:22;3.27;;;1.63;;
12482;SDS011;6306;47.134;15.344;2023-03-26T05:11:48;2.07;;;1.43;;
12482;SDS011;6306;47.134;15.344;2023-03-26T05:14:14;3.43;;;1.80;;
12482;SDS011;6306;47.134;15.344;2023-03-26T05:16:41;3.60;;;2.20;;
12482;SDS011;6306;47.134;15.344;2023-03-26T05:19:08;5.23;;;2.13;;
12482;SDS011;6306;47.134;15.344;2023-03-26T05:21:34;2.03;;;1.60;;
12482;SDS011;6306;47.134;15.344;2023-03-26T05:24:01;2.10;;;1.30;;
12482;SDS011;6306;47.134;15.344;2023-03-26T05:26:27;1.67;;;1.57;;
12482;SDS011;6306;47.134;15.344;2023-03-26T05:28:53;7.83;;;2.23;;
12482;SDS011;6306;47.134;15.344;2023-03-26T05:31:20;4.17;;;2.57;;
12482;SDS011;6306;47.134;15.344;2023-03-26T05:33:46;3.30;;;2.40;;
12482;SDS011;6306;47.134;15.344;2023-03-26T05:36:12;2.97;;;2.33;;
12482;SDS011;6306;47.134;15.344;2023-03-26T05:38:39;2.10;;;1.63;;
12482;SDS011;6306;47.134;15.344;2023-03-26T05:41:06;4.10;;;2.20;;
12482;SDS011;6306;47.134;15.344;2023-03-26T05:43:33;1.70;;;1.60;;
12482;SDS011;6306;47.134;15.344;2023-03-26T05:45:59;2.00;;;1.40;;
12482;SDS011;6306;47.134;15.344;2023-03-26T05:48:25;3.73;;;3.03;;
12482;SDS011;6306;47.134;15.344;2023-03-26T05:50:52;3.03;;;2.73;;
12482;SDS011;6306;47.134;15.344;2023-03-26T05:53:19;2.33;;;2.00;;
12482;SDS011;6306;47.134;15.344;2023-03-26T05:55:45;1.80;;;1.70;;
12482;SDS011;6306;47.134;15.344;2023-03-26T05:58:14;1.83;;;1.57;;
12482;SDS011;6306;47.134;15.344;2023-03-26T06:00:40;2.60;;;2.30;;
12482;SDS011;6306;47.134;15.344;2023-03-26T06:03:07;2.50;;;2.30;;
12482;SDS011;6306;47.134;15.344;2023-03-26T06:05:36;4.00;;;2.77;;
12482;SDS011;6306;47.134;15.344;2023-03-26T06:08:04;3.07;;;2.53;;
12482;SDS011;6306;47.134;15.344;2023-03-26T06:10:30;5.33;;;3.13;;
12482;SDS011;6306;47.134;15.344;2023-03-26T06:12:56;5.17;;;2.67;;
12482;SDS011;6306;47.134;15.344;2023-03-26T06:15:22;4.90;;;2.97;;
12482;SDS011;6306;47.134;15.344;2023-03-26T06:17:48;2.47;;;2.27;;
12482;SDS011;6306;47.134;15.344;2023-03-26T06:20:14;3.60;;;3.27;;
12482;SDS011;6306;47.134;15.344;2023-03-26T06:22:41;4.30;;;2.87;;
12482;SDS011;6306;47.134;15.344;2023-03-26T06:25:07;6.00;;;3.23;;
12482;SDS011;6306;47.134;15.344;2023-03-26T06:27:33;6.40;;;3.00;;
12482;SDS011;6306;47.134;15.344;2023-03-26T06:29:59;3.90;;;3.53;;
12482;SDS011;6306;47.134;15.344;2023-03-26T06:32:25;3.77;;;3.40;;
12482;SDS011;6306;47.134;15.344;2023-03-26T06:34:51;4.80;;;4.30;;
12482;SDS011;6306;47.134;15.344;2023-03-26T06:37:17;5.50;;;4.30;;
12482;SDS011;6306;47.134;15.344;2023-03-26T06:39:43;4.20;;;3.80;;
12482;SDS011;6306;47.134;15.344;2023-03-26T06:42:09;3.90;;;3.60;;
12482;SDS011;6306;47.134;15.344;2023-03-26T06:44:35;4.90;;;3.70;;
12482;SDS011;6306;47.134;15.344;2023-03-26T06:47:02;5.83;;;3.60;;
12482;SDS011;6306;47.134;15.344;2023-03-26T06:49:28;3.60;;;3.30;;
12482;SDS011;6306;47.134;15.344;2023-03-26T06:51:54;6.90;;;4.13;;
12482;SDS011;6306;47.134;15.344;2023-03-26T06:54:21;6.20;;;3.70;;
12482;SDS011;6306;47.134;15.344;2023-03-26T06:56:47;8.73;;;3.93;;
12482;SDS011;6306;47.134;15.344;2023-03-26T06:59:13;3.80;;;3.40;;
12482;SDS011;6306;47.134;15.344;2023-03-26T07:01:39;7.87;;;5.30;;
12482;SDS011;6306;47.134;15.344;2023-03-26T07:04:05;7.63;;;6.00;;
12482;SDS011;6306;47.134;15.344;2023-03-26T07:06:31;6.53;;;5.40;;
12482;SDS011;6306;47.134;15.344;2023-03-26T07:08:57;7.47;;;4.73;;
12482;SDS011;6306;47.134;15.344;2023-03-26T07:11:23;5.37;;;4.70;;
12482;SDS011;6306;47.134;15.344;2023-03-26T07:13:51;9.33;;;5.10;;
12482;SDS011;6306;47.134;15.344;2023-03-26T07:16:17;9.50;;;4.73;;
12482;SDS011;6306;47.134;15.344;2023-03-26T07:18:43;5.30;;;4.80;;
12482;SDS011;6306;47.134;15.344;2023-03-26T07:21:09;8.73;;;5.50;;
12482;SDS011;6306;47.134;15.344;2023-03-26T07:23:35;6.30;;;4.50;;
12482;SDS011;6306;47.134;15.344;2023-03-26T07:26:09;4.37;;;3.97;;
12482;SDS011;6306;47.134;15.344;2023-03-26T07:28:46;7.30;;;4.53;;
12482;SDS011;6306;47.134;15.344;2023-03-26T07:33:44;8.40;;;5.00;;
12482;SDS011;6306;47.134;15.344;2023-03-26T07:38:52;5.80;;;4.60;;
12482;SDS011;6306;47.134;15.344;2023-03-26T07:46:15;4.60;;;4.10;;
12482;SDS011;6306;47.134;15.344;2023-03-26T07:48:45;4.10;;;3.67;;
12482;SDS011;6306;47.134;15.344;2023-03-26T07:51:15;5.63;;;4.17;;
12482;SDS011;6306;47.134;15.344;2023-03-26T07:53:42;5.07;;;4.30;;
12482;SDS011;6306;47.134;15.344;2023-03-26T08:01:14;4.70;;;3.27;;
12482;SDS011;6306;47.134;15.344;2023-03-26T08:06:36;5.80;;;2.90;;
12482;SDS011;6306;47.134;15.344;2023-03-26T08:16:49;10.17;;;7.60;;
12482;SDS011;6306;47.134;15.344;2023-03-26T08:22:31;7.10;;;5.73;;
12482;SDS011;6306;47.134;15.344;2023-03-26T08:24:39;7.07;;;5.20;;
12482;SDS011;6306;47.134;15.344;2023-03-26T08:29:50;8.40;;;6.50;;
12482;SDS011;6306;47.134;15.344;2023-03-26T08:32:22;7.00;;;6.10;;
12482;SDS011;6306;47.134;15.344;2023-03-26T08:34:48;8.40;;;6.93;;
12482;SDS011;6306;47.134;15.344;2023-03-26T08:37:16;6.17;;;4.87;;
12482;SDS011;6306;47.134;15.344;2023-03-26T08:39:42;9.70;;;5.60;;
12482;SDS011;6306;47.134;15.344;2023-03-26T08:52:38;10.13;;;4.57;;
12482;SDS011;6306;47.134;15.344;2023-03-26T09:02:51;5.13;;;4.33;;
12482;SDS011;6306;47.134;15.344;2023-03-26T09:05:33;5.53;;;3.47;;
12482;SDS011;6306;47.134;15.344;2023-03-26T09:10:38;6.50;;;4.50;;
12482;SDS011;6306;47.134;15.344;2023-03-26T09:26:34;4.70;;;4.30;;
12482;SDS011;6306;47.134;15.344;2023-03-26T09:34:30;7.60;;;3.60;;
12482;SDS011;6306;47.134;15.344;2023-03-26T09:37:24;4.90;;;3.60;;
12482;SDS011;6306;47.134;15.344;2023-03-26T09:42:30;4.97;;;3.60;;
12482;SDS011;6306;47.134;15.344;2023-03-26T09:53:31;3.87;;;2.60;;
12482;SDS011;6306;47.134;15.344;2023-03-26T09:55:36;5.40;;;3.60;;
12482;SDS011;6306;47.134;15.344;2023-03-26T10:05:39;4.73;;;3.30;;
12482;SDS011;6306;47.134;15.344;2023-03-26T10:08:18;5.10;;;3.57;;
12482;SDS011;6306;47.134;15.344;2023-03-26T10:10:59;3.20;;;2.93;;
12482;SDS011;6306;47.134;15.344;2023-03-26T10:13:38;6.13;;;3.23;;
12482;SDS011;6306;47.134;15.344;2023-03-26T10:18:48;4.80;;;3.50;;
12482;SDS011;6306;47.134;15.344;2023-03-26T10:21:28;7.87;;;4.00;;
12482;SDS011;6306;47.134;15.344;2023-03-26T10:34:13;6.27;;;3.47;;
12482;SDS011;6306;47.134;15.344;2023-03-26T10:52:15;2.60;;;1.93;;
12482;SDS011;6306;47.134;15.344;2023-03-26T10:54:55;2.37;;;2.10;;
12482;SDS011;6306;47.134;15.344;2023-03-26T10:59:56;3.13;;;2.33;;
12482;SDS011;6306;47.134;15.344;2023-03-26T11:02:27;7.07;;;1.90;;
12482;SDS011;6306;47.134;15.344;2023-03-26T11:20:15;1.70;;;1.60;;
12482;SDS011;6306;47.134;15.344;2023-03-26T11:22:45;2.70;;;2.10;;
12482;SDS011;6306;47.134;15.344;2023-03-26T11:28:06;2.90;;;2.53;;
12482;SDS011;6306;47.134;15.344;2023-03-26T11:30:47;2.37;;;2.03;;
12482;SDS011;6306;47.134;15.344;2023-03-26T11:33:40;3.30;;;2.60;;
12482;SDS011;6306;47.134;15.344;2023-03-26T11:36:05;3.40;;;2.53;;
12482;SDS011;6306;47.134;15.344;2023-03-26T11:38:33;2.63;;;2.20;;
12482;SDS011;6306;47.134;15.344;2023-03-26T11:41:10;2.70;;;2.50;;
12482;SDS011;6306;47.134;15.344;2023-03-26T11:43:37;3.10;;;2.30;;
12482;SDS011;6306;47.134;15.344;2023-03-26T11:46:03;3.50;;;2.57;;
12482;SDS011;6306;47.134;15.344;2023-03-26T11:48:32;2.87;;;2.60;;
12482;SDS011;6306;47.134;15.344;2023-03-26T11:51:04;4.20;;;2.47;;
12482;SDS011;6306;47.134;15.344;2023-03-26T11:53:32;4.37;;;2.57;;
12482;SDS011;6306;47.134;15.344;2023-03-26T12:00:55;3.23;;;2.57;;
12482;SDS011;6306;47.134;15.344;2023-03-26T12:03:21;10.53;;;2.70;;
12482;SDS011;6306;47.134;15.344;2023-03-26T12:05:49;4.37;;;2.50;;
12482;SDS011;6306;47.134;15.344;2023-03-26T12:08:21;2.50;;;1.87;;
12482;SDS011;6306;47.134;15.344;2023-03-26T12:10:58;2.63;;;2.37;;
12482;SDS011;6306;47.134;15.344;2023-03-26T12:15:55;2.60;;;2.40;;
12482;SDS011;6306;47.134;15.344;2023-03-26T12:18:23;4.87;;;2.50;;
12482;SDS011;6306;47.134;15.344;2023-03-26T12:21:00;3.50;;;3.03;;
12482;SDS011;6306;47.134;15.344;2023-03-26T12:23:34;3.50;;;3.20;;
12482;SDS011;6306;47.134;15.344;2023-03-26T12:26:12;3.20;;;2.10;;
12482;SDS011;6306;47.134;15.344;2023-03-26T12:28:42;3.80;;;2.73;;
12482;SDS011;6306;47.134;15.344;2023-03-26T12:31:09;8.87;;;2.87;;
12482;SDS011;6306;47.134;15.344;2023-03-26T12:33:42;3.17;;;2.90;;
12482;SDS011;6306;47.134;15.344;2023-03-26T12:36:19;3.70;;;2.97;;
12482;SDS011;6306;47.134;15.344;2023-03-26T12:38:49;3.10;;;2.77;;
12482;SDS011;6306;47.134;15.344;2023-03-26T12:41:16;4.47;;;2.40;;
12482;SDS011;6306;47.134;15.344;2023-03-26T12:43:44;5.17;;;2.63;;
12482;SDS011;6306;47.134;15.344;2023-03-26T12:46:30;3.30;;;2.97;;
12482;SDS011;6306;47.134;15.344;2023-03-26T12:48:58;2.57;;;2.37;;
12482;SDS011;6306;47.134;15.344;2023-03-26T12:56:23;3.73;;;2.83;;
12482;SDS011;6306;47.134;15.344;2023-03-26T12:59:02;5.17;;;3.00;;
12482;SDS011;6306;47.134;15.344;2023-03-26T13:04:44;6.83;;;3.43;;
12482;SDS011;6306;47.134;15.344;2023-03-26T13:07:23;3.50;;;2.87;;
12482;SDS011;6306;47.134;15.344;2023-03-26T13:15:24;3.37;;;2.90;;
12482;SDS011;6306;47.134;15.344;2023-03-26T13:20:40;2.47;;;2.27;;
12482;SDS011;6306;47.134;15.344;2023-03-26T13:28:18;3.80;;;2.57;;
12482;SDS011;6306;47.134;15.344;2023-03-26T13:33:22;3.40;;;2.40;;
12482;SDS011;6306;47.134;15.344;2023-03-26T13:49:14;2.70;;;2.30;;
12482;SDS011;6306;47.134;15.344;2023-03-26T13:54:51;4.57;;;3.07;;
12482;SDS011;6306;47.134;15.344;2023-03-26T13:57:23;2.57;;;2.10;;
12482;SDS011;6306;47.134;15.344;2023-03-26T14:02:22;3.83;;;2.60;;
12482;SDS011;6306;47.134;15.344;2023-03-26T14:04:50;4.30;;;3.70;;
12482;SDS011;6306;47.134;15.344;2023-03-26T14:07:23;3.87;;;2.90;;
12482;SDS011;6306;47.134;15.344;2023-03-26T14:09:55;6.53;;;3.00;;
12482;SDS011;6306;47.134;15.344;2023-03-26T14:12:26;3.53;;;1.90;;
12482;SDS011;6306;47.134;15.344;2023-03-26T14:15:16;12.03;;;3.63;;
12482;SDS011;6306;47.134;15.344;2023-03-26T14:30:53;3.07;;;2.80;;
12482;SDS011;6306;47.134;15.344;2023-03-26T14:33:25;3.57;;;2.20;;
12482;SDS011;6306;47.134;15.344;2023-03-26T14:41:17;4.70;;;2.47;;
12482;SDS011;6306;47.134;15.344;2023-03-26T14:44:01;2.97;;;2.20;;
12482;SDS011;6306;47.134;15.344;2023-03-26T14:47:31;2.20;;;2.10;;
12482;SDS011;6306;47.134;15.344;2023-03-26T14:52:15;4.97;;;2.67;;
12482;SDS011;6306;47.134;15.344;2023-03-26T14:54:43;4.03;;;3.07;;
12482;SDS011;6306;47.134;15.344;2023-03-26T15:10:22;3.10;;;2.57;;
12482;SDS011;6306;47.134;15.344;2023-03-26T15:36:59;2.83;;;2.63;;
12482;SDS011;6306;47.134;15.344;2023-03-26T15:44:49;5.67;;;4.50;;
12482;SDS011;6306;47.134;15.344;2023-03-26T15:52:38;5.23;;;4.10;;
12482;SDS011;6306;47.134;15.344;2023-03-26T16:02:44;4.90;;;4.30;;
12482;SDS011;6306;47.134;15.344;2023-03-26T16:08:25;6.83;;;4.47;;
12482;SDS011;6306;47.134;15.344;2023-03-26T16:10:54;15.07;;;4.80;;
12482;SDS011;6306;47.134;15.344;2023-03-26T16:18:32;10.73;;;4.93;;
12482;SDS011;6306;47.134;15.344;2023-03-26T16:21:01;5.77;;;3.57;;
12482;SDS011;6306;47.134;15.344;2023-03-26T16:23:49;4.70;;;4.13;;
12482;SDS011;6306;47.134;15.344;2023-03-26T16:26:39;4.50;;;3.03;;
12482;SDS011;6306;47.134;15.344;2023-03-26T16:34:27;5.20;;;2.83;;
12482;SDS011;6306;47.134;15.344;2023-03-26T16:36:57;6.70;;;2.43;;
12482;SDS011;6306;47.134;15.344;2023-03-26T16:39:25;3.93;;;2.67;;
12482;SDS011;6306;47.134;15.344;2023-03-26T16:42:03;2.00;;;1.90;;
12482;SDS011;6306;47.134;15.344;2023-03-26T16:47:23;2.10;;;1.83;;
12482;SDS011;6306;47.134;15.344;2023-03-26T16:49:54;1.93;;;1.60;;
12482;SDS011;6306;47.134;15.344;2023-03-26T17:00:41;3.93;;;1.00;;
12482;SDS011;6306;47.134;15.344;2023-03-26T17:11:13;2.00;;;1.90;;
12482;SDS011;6306;47.134;15.344;2023-03-26T17:21:23;8.80;;;2.20;;
12482;SDS011;6306;47.134;15.344;2023-03-26T17:28:58;10.47;;;2.73;;
12482;SDS011;6306;47.134;15.344;2023-03-26T17:31:32;2.50;;;2.07;;
12482;SDS011;6306;47.134;15.344;2023-03-26T17:36:45;4.20;;;1.67;;
12482;SDS011;6306;47.134;15.344;2023-03-26T17:39:21;3.93;;;1.97;;
12482;SDS011;6306;47.134;15.344;2023-03-26T17:44:57;2.83;;;1.53;;
12482;SDS011;6306;47.134;15.344;2023-03-26T17:47:31;1.53;;;1.43;;
12482;SDS011;6306;47.134;15.344;2023-03-26T17:50:33;1.90;;;1.60;;
12482;SDS011;6306;47.134;15.344;2023-03-26T17:55:46;3.20;;;2.50;;
12482;SDS011;6306;47.134;15.344;2023-03-26T18:00:48;3.30;;;1.60;;
12482;SDS011;6306;47.134;15.344;2023-03-26T18:03:22;2.50;;;2.27;;
12482;SDS011;6306;47.134;15.344;2023-03-26T18:05:53;2.30;;;1.80;;
12482;SDS011;6306;47.134;15.344;2023-03-26T18:08:31;3.07;;;1.70;;
12482;SDS011;6306;47.134;15.344;2023-03-26T18:18:21;1.93;;;1.60;;
12482;SDS011;6306;47.134;15.344;2023-03-26T18:20:51;6.20;;;2.00;;
12482;SDS011;6306;47.134;15.344;2023-03-26T18:23:24;1.70;;;1.60;;
12482;SDS011;6306;47.134;15.344;2023-03-26T18:25:54;7.00;;;2.37;;
12482;SDS011;6306;47.134;15.344;2023-03-26T18:28:27;3.03;;;1.80;;
12482;SDS011;6306;47.134;15.344;2023-03-26T18:30:53;5.07;;;1.93;;
12482;SDS011;6306;47.134;15.344;2023-03-26T18:33:20;2.13;;;1.63;;
12482;SDS011;6306;47.134;15.344;2023-03-26T18:35:52;3.73;;;1.90;;
12482;SDS011;6306;47.134;15.344;2023-03-26T18:38:20;2.67;;;1.87;;
12482;SDS011;6306;47.134;15.344;2023-03-26T18:40:48;1.50;;;1.40;;
12482;SDS011;6306;47.134;15.344;2023-03-26T18:43:16;2.17;;;1.60;;
12482;SDS011;6306;47.134;15.344;2023-03-26T18:45:44;2.40;;;1.90;;
12482;SDS011;6306;47.134;15.344;2023-03-26T18:50:39;5.30;;;1.27;;
12482;SDS011;6306;47.134;15.344;2023-03-26T18:53:07;4.60;;;1.50;;
12482;SDS011;6306;47.134;15.344;2023-03-26T18:55:38;1.90;;;1.17;;
12482;SDS011;6306;47.134;15.344;2023-03-26T19:01:01;1.87;;;1.10;;
12482;SDS011;6306;47.134;15.344;2023-03-26T19:03:29;0.50;;;0.50;;
12482;SDS011;6306;47.134;15.344;2023-03-26T19:05:56;0.50;;;0.47;;
12482;SDS011;6306;47.134;15.344;2023-03-26T19:08:23;0.63;;;0.50;;
12482;SDS011;6306;47.134;15.344;2023-03-26T19:10:50;0.60;;;0.50;;
12482;SDS011;6306;47.134;15.344;2023-03-26T19:13:20;2.00;;;0.60;;
12482;SDS011;6306;47.134;15.344;2023-03-26T19:15:50;0.60;;;0.60;;
12482;SDS011;6306;47.134;15.344;2023-03-26T19:18:18;0.40;;;0.40;;
12482;SDS011;6306;47.134;15.344;2023-03-26T19:20:48;0.50;;;0.50;;
12482;SDS011;6306;47.134;15.344;2023-03-26T19:23:17;0.70;;;0.53;;
12482;SDS011;6306;47.134;15.344;2023-03-26T19:25:47;0.87;;;0.53;;
12482;SDS011;6306;47.134;15.344;2023-03-26T19:28:17;0.90;;;0.50;;
12482;SDS011;6306;47.134;15.344;2023-03-26T19:30:44;1.70;;;0.50;;
12482;SDS011;6306;47.134;15.344;2023-03-26T19:33:15;0.50;;;0.50;;
12482;SDS011;6306;47.134;15.344;2023-03-26T19:35:43;0.60;;;0.43;;
12482;SDS011;6306;47.134;15.344;2023-03-26T19:38:28;1.13;;;0.60;;
12482;SDS011;6306;47.134;15.344;2023-03-26T19:40:59;0.30;;;0.30;;
12482;SDS011;6306;47.134;15.344;2023-03-26T19:43:25;0.60;;;0.53;;
12482;SDS011;6306;47.134;15.344;2023-03-26T19:45:52;0.87;;;0.43;;
12482;SDS011;6306;47.134;15.344;2023-03-26T19:48:19;0.87;;;0.73;;
12482;SDS011;6306;47.134;15.344;2023-03-26T19:51:03;1.27;;;1.00;;
12482;SDS011;6306;47.134;15.344;2023-03-26T19:53:39;1.80;;;0.80;;
12482;SDS011;6306;47.134;15.344;2023-03-26T19:58:42;1.03;;;0.50;;
12482;SDS011;6306;47.134;15.344;2023-03-26T20:01:15;1.60;;;0.90;;
12482;SDS011;6306;47.134;15.344;2023-03-26T20:03:43;0.60;;;0.60;;
12482;SDS011;6306;47.134;15.344;2023-03-26T20:06:11;0.40;;;0.40;;
12482;SDS011;6306;47.134;15.344;2023-03-26T20:08:39;0.70;;;0.70;;
12482;SDS011;6306;47.134;15.344;2023-03-26T20:11:11;0.67;;;0.60;;
12482;SDS011;6306;47.134;15.344;2023-03-26T20:13:40;0.70;;;0.70;;
12482;SDS011;6306;47.134;15.344;2023-03-26T20:18:53;1.00;;;0.83;;
12482;SDS011;6306;47.134;15.344;2023-03-26T20:21:21;0.50;;;0.50;;
12482;SDS011;6306;47.134;15.344;2023-03-26T20:23:48;0.93;;;0.80;;
12482;SDS011;6306;47.134;15.344;2023-03-26T20:26:18;2.30;;;1.30;;
12482;SDS011;6306;47.134;15.344;2023-03-26T20:28:44;1.23;;;1.13;;
12482;SDS011;6306;47.134;15.344;2023-03-26T20:31:13;2.60;;;2.30;;
12482;SDS011;6306;47.134;15.344;2023-03-26T20:33:40;1.07;;;1.03;;
12482;SDS011;6306;47.134;15.344;2023-03-26T20:36:09;2.80;;;1.50;;
12482;SDS011;6306;47.134;15.344;2023-03-26T20:38:37;0.93;;;0.73;;
12482;SDS011;6306;47.134;15.344;2023-03-26T20:41:04;0.77;;;0.70;;
12482;SDS011;6306;47.134;15.344;2023-03-26T20:43:30;0.80;;;0.63;;
12482;SDS011;6306;47.134;15.344;2023-03-26T20:45:56;5.80;;;1.63;;
12482;SDS011;6306;47.134;15.344;2023-03-26T20:48:23;0.90;;;0.90;;
12482;SDS011;6306;47.134;15.344;2023-03-26T20:50:50;0.70;;;0.70;;
12482;SDS011;6306;47.134;15.344;2023-03-26T20:53:18;0.70;;;0.70;;
12482;SDS011;6306;47.134;15.344;2023-03-26T20:55:44;0.77;;;0.77;;
12482;SDS011;6306;47.134;15.344;2023-03-26T20:58:14;3.97;;;1.10;;
12482;SDS011;6306;47.134;15.344;2023-03-26T21:00:42;0.93;;;0.93;;
12482;SDS011;6306;47.134;15.344;2023-03-26T21:03:13;0.60;;;0.60;;